sensor_id;sensor_type;location;lat;lon;timestamp;pressure;altitude;pressure_sealevel;temperature;humidity
8637;BME280;4356;49.068;8.658;2022-10-10T00:00:40;99957.91;;;21.87;40.33
8637;BME280;4356;49.068;8.658;2022-10-10T00:03:07;99971.59;;;21.87;40.24
8637;BME280;4356;49.068;8.658;2022-10-10T00:05:35;99964.94;;;21.83;40.36
8637;BME280;4356;49.068;8.658;2022-10-10T00:08:00;99959.69;;;21.81;40.33
8637;BME280;4356;49.068;8.658;2022-10-10T00:10:26;99956.56;;;21.78;40.34
8637;BME280;4356;49.068;8.658;2022-10-10T00:12:51;99971.44;;;21.82;40.48
8637;BME280;4356;49.068;8.658;2022-10-10T00:15:17;99968.13;;;21.80;40.59
8637;BME280;4356;49.068;8.658;2022-10-10T00:17:43;99962.28;;;21.76;40.30
8637;BME280;4356;49.068;8.658;2022-10-10T00:20:11;99963.75;;;21.79;40.47
8637;BME280;4356;49.068;8.658;2022-10-10T00:22:37;99963.34;;;21.75;40.48
8637;BME280;4356;49.068;8.658;2022-10-10T00:25:04;99957.66;;;21.77;40.43
8637;BME280;4356;49.068;8.658;2022-10-10T00:27:30;99956.22;;;21.74;40.47
8637;BME280;4356;49.068;8.658;2022-10-10T00:29:55;99958.72;;;21.76;40.33
8637;BME280;4356;49.068;8.658;2022-10-10T00:32:21;99964.41;;;21.74;40.44
8637;BME280;4356;49.068;8.658;2022-10-10T00:34:46;99961.94;;;21.73;40.44
8637;BME280;4356;49.068;8.658;2022-10-10T00:37:12;99957.78;;;21.70;40.42
8637;BME280;4356;49.068;8.658;2022-10-10T00:39:37;99946.25;;;21.68;40.42
8637;BME280;4356;49.068;8.658;2022-10-10T00:42:03;99955.66;;;21.72;40.40
8637;BME280;4356;49.068;8.658;2022-10-10T00:44:28;99946.00;;;21.70;40.52
8637;BME280;4356;49.068;8.658;2022-10-10T00:46:54;99948.16;;;21.68;40.43
8637;BME280;4356;49.068;8.658;2022-10-10T00:49:22;99946.50;;;21.67;40.60
8637;BME280;4356;49.068;8.658;2022-10-10T00:51:52;99948.41;;;21.66;40.55
8637;BME280;4356;49.068;8.658;2022-10-10T00:54:20;99946.16;;;21.63;40.48
8637;BME280;4356;49.068;8.658;2022-10-10T00:56:53;99947.81;;;21.64;40.58
8637;BME280;4356;49.068;8.658;2022-10-10T00:59:22;99940.31;;;21.60;40.58
8637;BME280;4356;49.068;8.658;2022-10-10T01:01:49;99954.91;;;21.65;40.78
8637;BME280;4356;49.068;8.658;2022-10-10T01:04:40;99956.84;;;21.65;40.52
8637;BME280;4356;49.068;8.658;2022-10-10T01:07:11;99951.84;;;21.62;40.79
8637;BME280;4356;49.068;8.658;2022-10-10T01:09:39;99945.78;;;21.60;40.83
8637;BME280;4356;49.068;8.658;2022-10-10T01:12:17;99948.28;;;21.61;40.67
8637;BME280;4356;49.068;8.658;2022-10-10T01:17:38;99939.75;;;21.58;40.76
8637;BME280;4356;49.068;8.658;2022-10-10T01:20:30;99944.13;;;21.59;40.75
8637;BME280;4356;49.068;8.658;2022-10-10T01:23:27;99944.38;;;21.57;40.75
8637;BME280;4356;49.068;8.658;2022-10-10T01:28:55;99941.06;;;21.55;41.06
8637;BME280;4356;49.068;8.658;2022-10-10T01:31:24;99945.91;;;21.53;41.05
8637;BME280;4356;49.068;8.658;2022-10-10T01:34:05;99939.03;;;21.50;41.04
8637;BME280;4356;49.068;8.658;2022-10-10T01:39:17;99941.53;;;21.52;40.85
8637;BME280;4356;49.068;8.658;2022-10-10T01:41:51;99941.53;;;21.52;40.82
8637;BME280;4356;49.068;8.658;2022-10-10T01:44:21;99935.72;;;21.48;40.88
8637;BME280;4356;49.068;8.658;2022-10-10T01:46:47;99943.69;;;21.50;40.82
8637;BME280;4356;49.068;8.658;2022-10-10T01:49:13;99942.00;;;21.49;40.76
8637;BME280;4356;49.068;8.658;2022-10-10T01:57:18;99943.94;;;21.48;40.72
8637;BME280;4356;49.068;8.658;2022-10-10T02:00:05;99935.94;;;21.47;40.67
8637;BME280;4356;49.068;8.658;2022-10-10T02:05:14;99935.38;;;21.45;40.90
8637;BME280;4356;49.068;8.658;2022-10-10T02:08:02;99929.31;;;21.43;40.75
8637;BME280;4356;49.068;8.658;2022-10-10T02:10:31;99929.06;;;21.44;40.86
8637;BME280;4356;49.068;8.658;2022-10-10T02:12:59;99924.31;;;21.40;41.12
8637;BME280;4356;49.068;8.658;2022-10-10T02:15:31;99919.44;;;21.42;40.83
8637;BME280;4356;49.068;8.658;2022-10-10T02:17:59;99924.31;;;21.40;40.96
8637;BME280;4356;49.068;8.658;2022-10-10T02:20:29;99928.13;;;21.39;40.76
8637;BME280;4356;49.068;8.658;2022-10-10T02:22:55;99922.16;;;21.42;40.65
8637;BME280;4356;49.068;8.658;2022-10-10T02:25:25;99924.31;;;21.40;40.76
8637;BME280;4356;49.068;8.658;2022-10-10T02:28:16;99929.53;;;21.41;40.76
8637;BME280;4356;49.068;8.658;2022-10-10T02:30:47;99919.09;;;21.38;40.94
8637;BME280;4356;49.068;8.658;2022-10-10T02:33:18;99918.25;;;21.38;40.79
8637;BME280;4356;49.068;8.658;2022-10-10T02:35:45;99913.84;;;21.37;41.09
8637;BME280;4356;49.068;8.658;2022-10-10T02:38:14;99913.63;;;21.38;40.83
8637;BME280;4356;49.068;8.658;2022-10-10T02:40:41;99901.50;;;21.34;40.90
8637;BME280;4356;49.068;8.658;2022-10-10T02:43:09;99911.13;;;21.37;41.04
8637;BME280;4356;49.068;8.658;2022-10-10T02:45:37;99910.53;;;21.35;40.96
8637;BME280;4356;49.068;8.658;2022-10-10T02:48:04;99916.59;;;21.37;40.92
8637;BME280;4356;49.068;8.658;2022-10-10T02:50:31;99907.19;;;21.33;40.84
8637;BME280;4356;49.068;8.658;2022-10-10T02:52:57;99918.47;;;21.36;41.04
8637;BME280;4356;49.068;8.658;2022-10-10T02:55:23;99918.13;;;21.33;40.87
8637;BME280;4356;49.068;8.658;2022-10-10T02:57:48;99911.25;;;21.30;41.20
8637;BME280;4356;49.068;8.658;2022-10-10T03:00:14;99916.25;;;21.33;40.99
8637;BME280;4356;49.068;8.658;2022-10-10T03:02:40;99918.63;;;21.30;40.99
8637;BME280;4356;49.068;8.658;2022-10-10T03:05:06;99922.41;;;21.29;40.89
8637;BME280;4356;49.068;8.658;2022-10-10T03:07:32;99919.69;;;21.29;40.86
8637;BME280;4356;49.068;8.658;2022-10-10T03:09:57;99933.94;;;21.31;40.81
8637;BME280;4356;49.068;8.658;2022-10-10T03:12:23;99926.47;;;21.26;40.87
8637;BME280;4356;49.068;8.658;2022-10-10T03:14:48;99930.63;;;21.29;40.84
8637;BME280;4356;49.068;8.658;2022-10-10T03:17:14;99932.53;;;21.28;40.70
8637;BME280;4356;49.068;8.658;2022-10-10T03:19:40;99931.09;;;21.26;40.64
8637;BME280;4356;49.068;8.658;2022-10-10T03:22:05;99938.81;;;21.29;40.97
8637;BME280;4356;49.068;8.658;2022-10-10T03:24:31;99938.25;;;21.27;40.88
8637;BME280;4356;49.068;8.658;2022-10-10T03:26:56;99934.69;;;21.26;41.00
8637;BME280;4356;49.068;8.658;2022-10-10T03:29:22;99931.09;;;21.26;40.80
8637;BME280;4356;49.068;8.658;2022-10-10T03:31:48;99933.59;;;21.27;40.82
8637;BME280;4356;49.068;8.658;2022-10-10T03:34:14;99929.66;;;21.23;40.83
8637;BME280;4356;49.068;8.658;2022-10-10T03:36:39;99929.91;;;21.22;40.63
8637;BME280;4356;49.068;8.658;2022-10-10T03:39:05;99939.53;;;21.24;40.74
8637;BME280;4356;49.068;8.658;2022-10-10T03:41:32;99934.56;;;21.21;40.79
8637;BME280;4356;49.068;8.658;2022-10-10T03:43:57;99940.84;;;21.22;40.85
8637;BME280;4356;49.068;8.658;2022-10-10T03:46:23;99939.19;;;21.21;40.74
8637;BME280;4356;49.068;8.658;2022-10-10T03:48:49;99940.84;;;21.22;40.82
8637;BME280;4356;49.068;8.658;2022-10-10T03:51:14;99942.75;;;21.21;40.74
8637;BME280;4356;49.068;8.658;2022-10-10T03:53:40;99936.47;;;21.21;40.95
8637;BME280;4356;49.068;8.658;2022-10-10T03:56:06;99935.03;;;21.18;40.99
8637;BME280;4356;49.068;8.658;2022-10-10T03:58:31;99941.34;;;21.19;40.87
8637;BME280;4356;49.068;8.658;2022-10-10T04:01:01;99939.44;;;21.19;40.89
8637;BME280;4356;49.068;8.658;2022-10-10T04:03:28;99936.72;;;21.19;40.95
8637;BME280;4356;49.068;8.658;2022-10-10T04:05:54;99934.44;;;21.16;41.02
8637;BME280;4356;49.068;8.658;2022-10-10T04:08:20;99927.06;;;21.17;41.11
8637;BME280;4356;49.068;8.658;2022-10-10T04:10:49;99929.81;;;21.17;40.96
8637;BME280;4356;49.068;8.658;2022-10-10T04:13:15;99922.69;;;21.16;41.22
8637;BME280;4356;49.068;8.658;2022-10-10T04:15:40;99927.31;;;21.15;41.05
8637;BME280;4356;49.068;8.658;2022-10-10T04:18:06;99929.22;;;21.15;40.96
8637;BME280;4356;49.068;8.658;2022-10-10T04:20:32;99918.53;;;21.13;41.12
8637;BME280;4356;49.068;8.658;2022-10-10T04:22:57;99919.34;;;21.14;41.13
8637;BME280;4356;49.068;8.658;2022-10-10T04:25:23;99926.47;;;21.15;41.19
8637;BME280;4356;49.068;8.658;2022-10-10T04:27:49;99934.66;;;21.15;41.03
8637;BME280;4356;49.068;8.658;2022-10-10T04:30:15;99934.06;;;21.13;40.91
8637;BME280;4356;49.068;8.658;2022-10-10T04:32:41;99938.72;;;21.12;41.31
8637;BME280;4356;49.068;8.658;2022-10-10T04:35:06;99933.47;;;21.11;40.93
8637;BME280;4356;49.068;8.658;2022-10-10T04:37:33;99923.63;;;21.10;40.98
8637;BME280;4356;49.068;8.658;2022-10-10T04:39:58;99924.22;;;21.12;40.93
8637;BME280;4356;49.068;8.658;2022-10-10T04:42:24;99923.63;;;21.10;41.18
8637;BME280;4356;49.068;8.658;2022-10-10T04:44:49;99918.16;;;21.10;41.14
8637;BME280;4356;49.068;8.658;2022-10-10T04:47:15;99921.38;;;21.07;41.00
8637;BME280;4356;49.068;8.658;2022-10-10T04:49:41;99921.13;;;21.08;41.02
8637;BME280;4356;49.068;8.658;2022-10-10T04:52:08;99926.84;;;21.07;41.08
8637;BME280;4356;49.068;8.658;2022-10-10T04:54:34;99919.22;;;21.09;41.25
8637;BME280;4356;49.068;8.658;2022-10-10T04:57:00;99932.06;;;21.08;41.00
8637;BME280;4356;49.068;8.658;2022-10-10T04:59:25;99930.41;;;21.07;40.74
8637;BME280;4356;49.068;8.658;2022-10-10T05:01:51;99914.50;;;21.04;40.82
8637;BME280;4356;49.068;8.658;2022-10-10T05:04:16;99918.97;;;20.99;40.78
8637;BME280;4356;49.068;8.658;2022-10-10T05:06:42;99928.38;;;21.03;40.87
8637;BME280;4356;49.068;8.658;2022-10-10T05:09:07;99928.38;;;21.03;41.05
8637;BME280;4356;49.068;8.658;2022-10-10T05:11:33;99927.06;;;21.05;40.97
8637;BME280;4356;49.068;8.658;2022-10-10T05:13:59;99934.81;;;21.08;41.08
8637;BME280;4356;49.068;8.658;2022-10-10T05:16:24;99937.53;;;21.08;40.85
8637;BME280;4356;49.068;8.658;2022-10-10T05:18:50;99925.06;;;21.12;40.82
8637;BME280;4356;49.068;8.658;2022-10-10T05:21:15;99922.56;;;21.11;40.74
8637;BME280;4356;49.068;8.658;2022-10-10T05:23:41;99923.16;;;21.13;40.85
8637;BME280;4356;49.068;8.658;2022-10-10T05:26:07;99917.09;;;21.11;40.58
8637;BME280;4356;49.068;8.658;2022-10-10T05:28:33;99927.31;;;21.15;40.71
8637;BME280;4356;49.068;8.658;2022-10-10T05:31:00;99925.97;;;21.18;40.50
8637;BME280;4356;49.068;8.658;2022-10-10T05:33:26;99941.34;;;21.19;40.34
8637;BME280;4356;49.068;8.658;2022-10-10T05:35:51;99933.97;;;21.19;40.75
8637;BME280;4356;49.068;8.658;2022-10-10T05:38:17;99937.31;;;21.21;40.54
8637;BME280;4356;49.068;8.658;2022-10-10T05:40:43;99934.78;;;21.20;40.76
8637;BME280;4356;49.068;8.658;2022-10-10T05:43:09;99944.19;;;21.24;40.97
8637;BME280;4356;49.068;8.658;2022-10-10T05:45:35;99933.50;;;21.22;41.07
8637;BME280;4356;49.068;8.658;2022-10-10T05:48:00;99935.97;;;21.24;41.02
8637;BME280;4356;49.068;8.658;2022-10-10T05:50:30;99941.19;;;21.25;41.24
8637;BME280;4356;49.068;8.658;2022-10-10T05:52:57;99937.66;;;21.25;41.27
8637;BME280;4356;49.068;8.658;2022-10-10T05:55:22;99942.88;;;21.26;41.13
8637;BME280;4356;49.068;8.658;2022-10-10T05:57:48;99942.63;;;21.28;41.27
8637;BME280;4356;49.068;8.658;2022-10-10T06:00:14;99952.72;;;21.27;41.33
8637;BME280;4356;49.068;8.658;2022-10-10T06:02:39;99952.47;;;21.29;41.33
8637;BME280;4356;49.068;8.658;2022-10-10T06:05:06;99940.16;;;21.26;41.54
8637;BME280;4356;49.068;8.658;2022-10-10T06:07:33;99950.34;;;21.31;41.48
8637;BME280;4356;49.068;8.658;2022-10-10T06:09:59;99950.34;;;21.31;41.53
8637;BME280;4356;49.068;8.658;2022-10-10T06:12:24;99954.28;;;21.35;41.53
8637;BME280;4356;49.068;8.658;2022-10-10T06:14:50;99958.69;;;21.36;41.39
8637;BME280;4356;49.068;8.658;2022-10-10T06:17:16;99948.81;;;21.35;41.49
8637;BME280;4356;49.068;8.658;2022-10-10T06:19:42;99946.91;;;21.35;41.56
8637;BME280;4356;49.068;8.658;2022-10-10T06:22:08;99958.44;;;21.37;41.75
8637;BME280;4356;49.068;8.658;2022-10-10T06:24:33;99959.25;;;21.38;41.77
8637;BME280;4356;49.068;8.658;2022-10-10T06:26:59;99960.34;;;21.37;41.53
8637;BME280;4356;49.068;8.658;2022-10-10T06:29:24;99960.09;;;21.38;41.60
8637;BME280;4356;49.068;8.658;2022-10-10T06:31:50;99966.75;;;21.42;41.58
8637;BME280;4356;49.068;8.658;2022-10-10T06:34:16;99956.50;;;21.38;41.69
8637;BME280;4356;49.068;8.658;2022-10-10T06:36:41;99962.94;;;21.43;41.46
8637;BME280;4356;49.068;8.658;2022-10-10T06:39:07;99955.47;;;21.39;41.71
8637;BME280;4356;49.068;8.658;2022-10-10T06:41:33;99975.78;;;21.43;41.54
8637;BME280;4356;49.068;8.658;2022-10-10T06:43:58;99967.59;;;21.43;41.64
8637;BME280;4356;49.068;8.658;2022-10-10T06:46:24;99967.59;;;21.43;41.58
8637;BME280;4356;49.068;8.658;2022-10-10T06:48:49;99960.94;;;21.39;41.77
8637;BME280;4356;49.068;8.658;2022-10-10T06:51:16;99960.94;;;21.39;41.90
8637;BME280;4356;49.068;8.658;2022-10-10T06:53:43;99954.75;;;21.32;41.71
8637;BME280;4356;49.068;8.658;2022-10-10T06:56:12;99963.91;;;21.37;42.11
8637;BME280;4356;49.068;8.658;2022-10-10T06:58:42;99963.31;;;21.35;42.13
8637;BME280;4356;49.068;8.658;2022-10-10T07:01:08;99967.25;;;21.39;42.31
8637;BME280;4356;49.068;8.658;2022-10-10T07:03:34;99962.47;;;21.35;42.35
8637;BME280;4356;49.068;8.658;2022-10-10T07:06:01;99990.97;;;21.50;42.29
8637;BME280;4356;49.068;8.658;2022-10-10T07:08:28;99971.88;;;21.39;42.38
8637;BME280;4356;49.068;8.658;2022-10-10T07:10:54;99976.25;;;21.40;42.26
8637;BME280;4356;49.068;8.658;2022-10-10T07:13:21;100000.84;;;21.52;42.26
8637;BME280;4356;49.068;8.658;2022-10-10T07:15:47;99976.84;;;21.42;42.09
8637;BME280;4356;49.068;8.658;2022-10-10T07:18:18;99983.50;;;21.46;41.94
8637;BME280;4356;49.068;8.658;2022-10-10T07:20:47;99972.22;;;21.42;41.98
8637;BME280;4356;49.068;8.658;2022-10-10T07:23:14;99987.53;;;21.43;41.92
8637;BME280;4356;49.068;8.658;2022-10-10T07:25:42;100000.97;;;21.57;41.66
8637;BME280;4356;49.068;8.658;2022-10-10T07:28:09;99984.34;;;21.46;41.66
8637;BME280;4356;49.068;8.658;2022-10-10T07:30:42;100002.16;;;21.61;41.89
8637;BME280;4356;49.068;8.658;2022-10-10T07:33:11;99990.63;;;21.47;41.71
8637;BME280;4356;49.068;8.658;2022-10-10T07:35:37;99987.88;;;21.47;41.54
8637;BME280;4356;49.068;8.658;2022-10-10T07:38:03;100018.44;;;21.67;41.53
8637;BME280;4356;49.068;8.658;2022-10-10T07:40:29;99983.59;;;21.51;41.50
8637;BME280;4356;49.068;8.658;2022-10-10T07:42:54;99991.81;;;21.51;41.45
8637;BME280;4356;49.068;8.658;2022-10-10T07:45:20;100007.72;;;21.66;41.56
8637;BME280;4356;49.068;8.658;2022-10-10T07:47:46;99986.69;;;21.55;41.53
8637;BME280;4356;49.068;8.658;2022-10-10T07:50:11;100014.75;;;21.73;41.62
8637;BME280;4356;49.068;8.658;2022-10-10T07:52:39;100011.66;;;21.70;41.67
8637;BME280;4356;49.068;8.658;2022-10-10T07:55:06;99989.44;;;21.55;41.76
8637;BME280;4356;49.068;8.658;2022-10-10T07:57:31;99998.34;;;21.62;41.52
8637;BME280;4356;49.068;8.658;2022-10-10T08:00:02;99998.56;;;21.60;41.33
8637;BME280;4356;49.068;8.658;2022-10-10T08:02:28;100013.31;;;21.71;41.66
8637;BME280;4356;49.068;8.658;2022-10-10T08:04:54;99994.06;;;21.66;41.72
8637;BME280;4356;49.068;8.658;2022-10-10T08:07:20;99999.78;;;21.64;41.49
8637;BME280;4356;49.068;8.658;2022-10-10T08:09:45;100001.22;;;21.67;41.54
8637;BME280;4356;49.068;8.658;2022-10-10T08:12:11;99993.47;;;21.64;41.35
8637;BME280;4356;49.068;8.658;2022-10-10T08:14:37;99990.13;;;21.62;41.53
8637;BME280;4356;49.068;8.658;2022-10-10T08:17:02;99998.69;;;21.65;41.36
8637;BME280;4356;49.068;8.658;2022-10-10T08:19:28;100001.22;;;21.67;41.23
8637;BME280;4356;49.068;8.658;2022-10-10T08:21:54;100019.72;;;21.76;41.38
8637;BME280;4356;49.068;8.658;2022-10-10T08:24:19;99996.53;;;21.67;41.10
8637;BME280;4356;49.068;8.658;2022-10-10T08:26:45;99995.00;;;21.71;41.29
8637;BME280;4356;49.068;8.658;2022-10-10T08:29:10;100021.03;;;21.85;41.35
8637;BME280;4356;49.068;8.658;2022-10-10T08:31:36;100000.31;;;21.78;41.38
8637;BME280;4356;49.068;8.658;2022-10-10T08:34:02;100038.16;;;22.04;41.27
8637;BME280;4356;49.068;8.658;2022-10-10T08:36:27;100032.31;;;22.12;41.23
8637;BME280;4356;49.068;8.658;2022-10-10T08:38:54;100027.13;;;22.27;41.32
8637;BME280;4356;49.068;8.658;2022-10-10T08:41:39;100030.16;;;22.42;40.86
8637;BME280;4356;49.068;8.658;2022-10-10T08:47:03;100025.78;;;22.69;40.47
8637;BME280;4356;49.068;8.658;2022-10-10T08:49:36;100005.03;;;22.73;40.05
8637;BME280;4356;49.068;8.658;2022-10-10T08:55:29;100033.72;;;23.15;39.69
8637;BME280;4356;49.068;8.658;2022-10-10T08:58:02;100020.69;;;23.22;39.24
8637;BME280;4356;49.068;8.658;2022-10-10T09:00:36;100020.84;;;23.32;39.17
8637;BME280;4356;49.068;8.658;2022-10-10T09:03:16;100014.97;;;23.40;38.96
8637;BME280;4356;49.068;8.658;2022-10-10T09:06:06;100019.16;;;23.48;39.03
8637;BME280;4356;49.068;8.658;2022-10-10T09:22:19;100002.94;;;23.63;38.43
8637;BME280;4356;49.068;8.658;2022-10-10T09:24:55;100012.31;;;23.67;38.90
8637;BME280;4356;49.068;8.658;2022-10-10T09:27:27;100012.66;;;23.71;38.56
8637;BME280;4356;49.068;8.658;2022-10-10T09:30:00;100007.53;;;23.79;38.82
8637;BME280;4356;49.068;8.658;2022-10-10T09:32:29;100012.34;;;23.89;38.32
8637;BME280;4356;49.068;8.658;2022-10-10T09:35:19;100012.41;;;23.94;38.38
8637;BME280;4356;49.068;8.658;2022-10-10T09:37:49;100018.47;;;23.96;38.47
8637;BME280;4356;49.068;8.658;2022-10-10T09:40:21;100011.91;;;23.97;38.53
8637;BME280;4356;49.068;8.658;2022-10-10T09:42:48;100015.19;;;23.99;38.48
8637;BME280;4356;49.068;8.658;2022-10-10T09:45:16;100006.50;;;24.02;38.39
8637;BME280;4356;49.068;8.658;2022-10-10T09:47:42;100000.94;;;23.97;38.45
8637;BME280;4356;49.068;8.658;2022-10-10T09:50:14;100007.34;;;24.02;38.59
8637;BME280;4356;49.068;8.658;2022-10-10T09:52:41;100012.06;;;24.07;38.52
8637;BME280;4356;49.068;8.658;2022-10-10T09:55:27;100009.63;;;24.10;38.52
8637;BME280;4356;49.068;8.658;2022-10-10T09:57:56;100008.28;;;24.13;38.43
8637;BME280;4356;49.068;8.658;2022-10-10T10:00:28;100003.38;;;24.15;38.63
8637;BME280;4356;49.068;8.658;2022-10-10T10:03:17;100008.94;;;24.20;38.69
8637;BME280;4356;49.068;8.658;2022-10-10T10:05:55;99999.31;;;24.22;38.83
8637;BME280;4356;49.068;8.658;2022-10-10T10:08:41;100000.22;;;24.28;38.76
8637;BME280;4356;49.068;8.658;2022-10-10T10:11:29;100001.09;;;24.33;38.65
8637;BME280;4356;49.068;8.658;2022-10-10T10:13:56;99995.88;;;24.32;38.34
8637;BME280;4356;49.068;8.658;2022-10-10T10:16:35;100002.00;;;24.39;38.68
8637;BME280;4356;49.068;8.658;2022-10-10T10:19:01;100002.63;;;24.46;38.67
8637;BME280;4356;49.068;8.658;2022-10-10T10:21:28;100004.59;;;24.51;38.50
8637;BME280;4356;49.068;8.658;2022-10-10T10:24:00;100003.00;;;24.55;38.66
8637;BME280;4356;49.068;8.658;2022-10-10T10:26:43;99998.63;;;24.59;38.85
8637;BME280;4356;49.068;8.658;2022-10-10T10:40:38;99997.16;;;24.73;38.54
8637;BME280;4356;49.068;8.658;2022-10-10T10:43:20;100000.78;;;24.78;38.48
8637;BME280;4356;49.068;8.658;2022-10-10T10:56:49;99994.84;;;24.91;38.86
8637;BME280;4356;49.068;8.658;2022-10-10T11:01:50;100002.06;;;24.97;38.04
8637;BME280;4356;49.068;8.658;2022-10-10T11:09:38;99997.72;;;25.06;38.22
8637;BME280;4356;49.068;8.658;2022-10-10T11:15:04;99993.94;;;25.12;38.39
8637;BME280;4356;49.068;8.658;2022-10-10T11:20:05;99993.97;;;25.17;38.56
8637;BME280;4356;49.068;8.658;2022-10-10T11:22:40;99990.69;;;25.20;38.17
8637;BME280;4356;49.068;8.658;2022-10-10T11:25:35;99986.59;;;25.23;38.18
8637;BME280;4356;49.068;8.658;2022-10-10T11:28:15;99985.47;;;25.24;38.66
8637;BME280;4356;49.068;8.658;2022-10-10T11:30:59;99987.72;;;25.27;38.05
8637;BME280;4356;49.068;8.658;2022-10-10T11:33:30;99996.28;;;25.30;38.36
8637;BME280;4356;49.068;8.658;2022-10-10T11:36:18;99995.72;;;25.33;38.04
8637;BME280;4356;49.068;8.658;2022-10-10T11:39:15;99986.41;;;25.34;38.33
8637;BME280;4356;49.068;8.658;2022-10-10T11:41:50;99976.19;;;25.35;37.83
8637;BME280;4356;49.068;8.658;2022-10-10T11:47:43;99986.19;;;25.41;38.00
8637;BME280;4356;49.068;8.658;2022-10-10T11:50:24;99973.28;;;25.41;37.84
8637;BME280;4356;49.068;8.658;2022-10-10T11:55:56;99973.56;;;25.45;37.83
8637;BME280;4356;49.068;8.658;2022-10-10T11:58:39;99976.63;;;25.49;37.73
8637;BME280;4356;49.068;8.658;2022-10-10T12:01:09;99966.16;;;25.51;37.65
8637;BME280;4356;49.068;8.658;2022-10-10T12:03:37;99958.72;;;25.51;37.95
8637;BME280;4356;49.068;8.658;2022-10-10T12:06:12;99961.47;;;25.51;37.58
8637;BME280;4356;49.068;8.658;2022-10-10T12:09:09;99957.94;;;25.56;37.43
8637;BME280;4356;49.068;8.658;2022-10-10T12:14:20;99955.75;;;25.58;37.26
8637;BME280;4356;49.068;8.658;2022-10-10T12:16:47;99962.63;;;25.60;37.59
8637;BME280;4356;49.068;8.658;2022-10-10T12:19:23;99950.53;;;25.61;37.35
8637;BME280;4356;49.068;8.658;2022-10-10T12:22:02;99957.41;;;25.64;37.53
8637;BME280;4356;49.068;8.658;2022-10-10T12:24:37;99960.72;;;25.66;37.48
8637;BME280;4356;49.068;8.658;2022-10-10T12:27:44;99947.81;;;25.66;37.78
8637;BME280;4356;49.068;8.658;2022-10-10T12:30:16;99960.22;;;25.69;37.83
8637;BME280;4356;49.068;8.658;2022-10-10T12:32:43;99953.59;;;25.70;37.95
8637;BME280;4356;49.068;8.658;2022-10-10T12:35:35;99957.75;;;25.72;37.95
8637;BME280;4356;49.068;8.658;2022-10-10T12:40:31;99949.22;;;25.74;37.64
8637;BME280;4356;49.068;8.658;2022-10-10T12:48:11;99952.81;;;25.79;37.39
8637;BME280;4356;49.068;8.658;2022-10-10T12:50:42;99949.53;;;25.82;37.21
8637;BME280;4356;49.068;8.658;2022-10-10T12:53:18;99944.28;;;25.81;37.16
8637;BME280;4356;49.068;8.658;2022-10-10T12:55:48;99955.31;;;25.86;36.79
8637;BME280;4356;49.068;8.658;2022-10-10T12:58:33;99950.38;;;25.88;36.96
8637;BME280;4356;49.068;8.658;2022-10-10T13:01:06;99947.91;;;25.86;36.90
8637;BME280;4356;49.068;8.658;2022-10-10T13:03:44;99940.75;;;25.90;36.83
8637;BME280;4356;49.068;8.658;2022-10-10T13:06:27;99943.81;;;25.94;36.90
8637;BME280;4356;49.068;8.658;2022-10-10T13:08:55;99935.81;;;25.92;36.66
8637;BME280;4356;49.068;8.658;2022-10-10T13:11:21;99941.59;;;25.96;36.63
8637;BME280;4356;49.068;8.658;2022-10-10T13:13:54;99941.34;;;25.97;36.69
8637;BME280;4356;49.068;8.658;2022-10-10T13:16:25;99941.06;;;25.99;36.84
8637;BME280;4356;49.068;8.658;2022-10-10T13:18:54;99947.69;;;26.03;36.67
8637;BME280;4356;49.068;8.658;2022-10-10T13:21:23;99945.78;;;26.03;36.58
8637;BME280;4356;49.068;8.658;2022-10-10T13:23:53;99940.25;;;26.03;36.71
8637;BME280;4356;49.068;8.658;2022-10-10T13:28:53;99945.81;;;26.08;36.73
8637;BME280;4356;49.068;8.658;2022-10-10T13:31:23;99936.16;;;26.06;36.65
8637;BME280;4356;49.068;8.658;2022-10-10T13:33:49;99937.00;;;26.06;36.32
8637;BME280;4356;49.068;8.658;2022-10-10T13:36:20;99942.78;;;26.10;36.49
8637;BME280;4356;49.068;8.658;2022-10-10T13:38:50;99942.50;;;26.06;36.62
8637;BME280;4356;49.068;8.658;2022-10-10T13:41:18;99942.22;;;26.08;36.22
8637;BME280;4356;49.068;8.658;2022-10-10T13:43:45;99940.81;;;26.05;36.34
8637;BME280;4356;49.068;8.658;2022-10-10T13:46:19;99944.44;;;26.11;36.27
8637;BME280;4356;49.068;8.658;2022-10-10T13:48:45;99929.56;;;26.07;36.34
8637;BME280;4356;49.068;8.658;2022-10-10T13:51:13;99943.63;;;26.10;36.27
8637;BME280;4356;49.068;8.658;2022-10-10T13:53:47;99940.03;;;26.10;36.58
8637;BME280;4356;49.068;8.658;2022-10-10T13:56:43;99945.53;;;26.10;36.15
8637;BME280;4356;49.068;8.658;2022-10-10T13:59:11;99939.75;;;26.06;36.32
8637;BME280;4356;49.068;8.658;2022-10-10T14:01:42;99935.31;;;26.05;35.99
8637;BME280;4356;49.068;8.658;2022-10-10T14:07:05;99930.66;;;26.06;35.98
8637;BME280;4356;49.068;8.658;2022-10-10T14:09:37;99937.25;;;26.05;36.09
8637;BME280;4356;49.068;8.658;2022-10-10T14:12:06;99939.19;;;26.04;36.05
8637;BME280;4356;49.068;8.658;2022-10-10T14:14:39;99940.25;;;26.03;35.85
8637;BME280;4356;49.068;8.658;2022-10-10T14:17:08;99939.16;;;25.99;36.12
8637;BME280;4356;49.068;8.658;2022-10-10T14:19:35;99928.91;;;25.95;35.77
8637;BME280;4356;49.068;8.658;2022-10-10T14:22:00;99939.69;;;26.01;36.03
8637;BME280;4356;49.068;8.658;2022-10-10T14:24:26;99942.19;;;26.03;35.97
8637;BME280;4356;49.068;8.658;2022-10-10T14:26:52;99940.22;;;25.98;36.08
8637;BME280;4356;49.068;8.658;2022-10-10T14:29:18;99938.88;;;26.01;36.29
8637;BME280;4356;49.068;8.658;2022-10-10T14:31:45;99935.28;;;26.00;35.92
8637;BME280;4356;49.068;8.658;2022-10-10T14:34:12;99941.63;;;26.01;36.46
8637;BME280;4356;49.068;8.658;2022-10-10T14:36:43;99943.25;;;26.02;36.19
8637;BME280;4356;49.068;8.658;2022-10-10T14:39:18;99944.09;;;26.02;36.19
8637;BME280;4356;49.068;8.658;2022-10-10T14:41:44;99943.00;;;26.03;36.34
8637;BME280;4356;49.068;8.658;2022-10-10T14:44:10;99943.00;;;26.03;36.46
8637;BME280;4356;49.068;8.658;2022-10-10T14:46:37;99940.25;;;26.03;36.43
8637;BME280;4356;49.068;8.658;2022-10-10T14:49:04;99948.53;;;26.03;36.62
8637;BME280;4356;49.068;8.658;2022-10-10T14:51:30;99945.25;;;26.06;36.43
8637;BME280;4356;49.068;8.658;2022-10-10T14:54:01;99936.44;;;26.04;37.06
8637;BME280;4356;49.068;8.658;2022-10-10T14:56:27;99940.03;;;26.05;37.17
8637;BME280;4356;49.068;8.658;2022-10-10T14:58:53;99944.97;;;26.08;37.08
8637;BME280;4356;49.068;8.658;2022-10-10T15:01:19;99941.38;;;26.07;37.12
8637;BME280;4356;49.068;8.658;2022-10-10T15:03:44;99952.97;;;26.09;36.91
8637;BME280;4356;49.068;8.658;2022-10-10T15:06:10;99941.38;;;26.07;37.02